Time;durP1;ratioP1;P1;durP2;ratioP2;P2;SDS_P1;SDS_P2;PMS_P1;PMS_P2;Temp;Humidity;BMP_temperature;BMP_pressure;BME280_temperature;BME280_humidity;BME280_pressure;Samples;Min_cycle;Max_cycle;Signal;HPM_P1;HPM_P2
2023/05/30 00:00:43;;;;;;;3.73;2.17;;;15.90;1.00;;;;;;5014704;28;20452;-75
2023/05/30 00:03:09;;;;;;;6.63;2.33;;;16.00;1.00;;;;;;5014710;28;20466;-75
2023/05/30 00:05:36;;;;;;;5.07;2.17;;;15.80;1.00;;;;;;5015253;28;20484;-75
2023/05/30 00:08:02;;;;;;;13.43;2.00;;;15.80;1.00;;;;;;5013942;28;20480;-75
2023/05/30 00:10:28;;;;;;;5.23;2.17;;;15.70;1.00;;;;;;5006260;28;20817;-75
2023/05/30 00:13:15;;;;;;;5.63;2.20;;;15.70;1.00;;;;;;5014514;28;20431;-75
2023/05/30 00:15:41;;;;;;;7.80;2.30;;;15.70;1.00;;;;;;5014755;28;20202;-75
2023/05/30 00:18:07;;;;;;;4.80;2.27;;;15.60;1.00;;;;;;5014649;28;20422;-75
2023/05/30 00:20:33;;;;;;;9.30;2.30;;;15.60;1.00;;;;;;4997503;28;20397;-75
2023/05/30 00:22:59;;;;;;;7.13;1.90;;;15.50;1.00;;;;;;5014205;28;20826;-75
2023/05/30 00:25:27;;;;;;;4.00;1.90;;;15.50;1.00;;;;;;5014569;28;20452;-76
2023/05/30 00:27:53;;;;;;;9.53;2.20;;;15.50;1.00;;;;;;5010568;28;20175;-75
2023/05/30 00:30:27;;;;;;;12.20;2.90;;;15.50;1.00;;;;;;5009832;28;20421;-75
2023/05/30 00:32:57;;;;;;;8.53;2.37;;;15.50;1.00;;;;;;5013987;28;20180;-75
2023/05/30 00:35:57;;;;;;;11.73;3.20;;;15.40;1.00;;;;;;5014959;28;20837;-83
2023/05/30 00:39:09;;;;;;;6.60;2.23;;;15.40;1.00;;;;;;5014105;28;20515;-83
2023/05/30 00:42:27;;;;;;;7.30;2.27;;;15.30;1.00;;;;;;5000885;28;20447;-83
2023/05/30 00:44:57;;;;;;;7.60;2.40;;;15.20;1.00;;;;;;5013317;28;20506;-83
2023/05/30 00:47:34;;;;;;;5.77;2.47;;;15.20;1.00;;;;;;5014162;28;20428;-82
2023/05/30 00:50:21;;;;;;;8.50;3.17;;;15.20;1.00;;;;;;4982188;28;20436;-83
2023/05/30 00:53:21;;;;;;;7.10;2.37;;;15.10;1.00;;;;;;5013912;28;20500;-83
2023/05/30 00:55:48;;;;;;;9.00;2.20;;;15.10;1.00;;;;;;5006819;28;20431;-83
2023/05/30 00:58:21;;;;;;;4.87;1.80;;;15.00;1.00;;;;;;5013789;28;20902;-83
2023/05/30 01:00:57;;;;;;;7.90;2.50;;;15.00;1.00;;;;;;5014101;28;20383;-83
2023/05/30 01:07:15;;;;;;;14.23;2.10;;;14.90;1.00;;;;;;5011019;28;20494;-84
2023/05/30 01:13:29;;;;;;;9.30;2.10;;;14.90;1.00;;;;;;5010488;28;20916;-84
2023/05/30 01:16:25;;;;;;;10.20;2.20;;;14.80;1.00;;;;;;5013902;28;20402;-84
2023/05/30 01:19:21;;;;;;;8.43;2.07;;;14.80;1.00;;;;;;5014012;28;20402;-84
2023/05/30 01:21:51;;;;;;;10.77;2.53;;;14.70;1.00;;;;;;5009908;28;20528;-75
2023/05/30 01:25:08;;;;;;;34.80;2.57;;;14.70;1.00;;;;;;5013534;28;20431;-76
2023/05/30 01:28:01;;;;;;;10.80;2.43;;;14.60;1.00;;;;;;4971049;28;20404;-75
2023/05/30 01:30:29;;;;;;;10.77;2.23;;;14.60;1.00;;;;;;4956969;28;20438;-75
2023/05/30 01:32:54;;;;;;;6.33;1.93;;;14.70;1.00;;;;;;4956208;28;20989;-75
2023/05/30 01:35:27;;;;;;;6.23;2.13;;;14.60;1.00;;;;;;4954908;28;20440;-75
2023/05/30 01:38:09;;;;;;;8.90;3.10;;;14.60;1.00;;;;;;4955906;28;20222;-75
2023/05/30 01:40:36;;;;;;;9.40;2.50;;;14.60;1.00;;;;;;4944843;29;20445;-75
2023/05/30 01:43:12;;;;;;;12.13;2.27;;;14.50;1.00;;;;;;4958679;28;20770;-76
2023/05/30 01:46:20;;;;;;;14.90;3.07;;;14.50;1.00;;;;;;4962074;28;20425;-76
2023/05/30 01:49:00;;;;;;;11.27;2.27;;;14.40;1.00;;;;;;4941430;29;20501;-75
2023/05/30 01:51:49;;;;;;;6.10;2.13;;;14.40;1.00;;;;;;4957097;28;20438;-75
2023/05/30 01:54:28;;;;;;;13.63;2.37;;;14.30;1.00;;;;;;4952392;29;20438;-76
2023/05/30 01:57:13;;;;;;;9.60;2.27;;;14.30;1.00;;;;;;4945533;29;20590;-75
2023/05/30 01:59:40;;;;;;;11.70;2.40;;;14.30;1.00;;;;;;4963888;28;20447;-76
2023/05/30 02:02:08;;;;;;;10.33;2.00;;;14.20;1.00;;;;;;4961769;28;20967;-75
2023/05/30 02:04:37;;;;;;;4.03;2.13;;;14.20;1.00;;;;;;5010322;28;20420;-83
2023/05/30 02:07:10;;;;;;;8.93;2.80;;;14.20;1.00;;;;;;5016138;28;20431;-84
2023/05/30 02:09:45;;;;;;;10.70;3.23;;;14.10;1.00;;;;;;4998856;28;21116;-83
2023/05/30 02:15:33;;;;;;;9.13;2.53;;;14.10;1.00;;;;;;5016926;28;20434;-84
2023/05/30 02:18:21;;;;;;;9.03;2.27;;;14.00;1.00;;;;;;5016889;28;20931;-84
2023/05/30 02:20:51;;;;;;;14.83;2.80;;;14.00;1.00;;;;;;5010683;28;20428;-84
2023/05/30 02:23:34;;;;;;;10.37;2.67;;;14.00;1.00;;;;;;5007582;28;20406;-84
2023/05/30 02:26:39;;;;;;;4.67;2.13;;;14.00;1.00;;;;;;5017175;28;20425;-84
2023/05/30 02:32:51;;;;;;;10.20;2.70;;;13.90;1.00;;;;;;5014557;28;20909;-84
2023/05/30 02:36:03;;;;;;;11.10;2.23;;;13.90;1.00;;;;;;5001972;28;20427;-84
2023/05/30 02:39:21;;;;;;;7.70;2.10;;;13.80;1.00;;;;;;5007414;28;20431;-84
2023/05/30 02:45:39;;;;;;;14.43;2.67;;;13.70;1.00;;;;;;4999258;28;20520;-83
2023/05/30 02:48:09;;;;;;;8.17;2.27;;;13.70;1.00;;;;;;4998844;28;20800;-84
2023/05/30 02:50:51;;;;;;;11.07;3.40;;;13.70;1.00;;;;;;4998793;28;20964;-83
2023/05/30 02:53:17;;;;;;;12.47;2.40;;;13.60;1.00;;;;;;5012382;28;20438;-84
2023/05/30 02:59:04;;;;;;;8.57;2.43;;;13.70;1.00;;;;;;5008785;28;20175;-84
2023/05/30 03:02:03;;;;;;;11.00;3.17;;;13.60;1.00;;;;;;4998459;28;20485;-83
2023/05/30 03:04:33;;;;;;;;;;;13.60;1.00;;;;;;5015038;28;20181;-83
2023/05/30 03:06:59;;;;;;;;;;;13.60;1.00;;;;;;4999052;28;19909;-75
2023/05/30 03:09:39;;;;;;;;;;;13.50;1.00;;;;;;5016342;28;19906;-75
2023/05/30 03:12:15;;;;;;;;;;;13.40;1.00;;;;;;5015188;28;19909;-76
2023/05/30 03:14:41;;;;;;;;;;;13.40;1.00;;;;;;5015864;28;19936;-76
2023/05/30 03:17:06;;;;;;;;;;;13.40;1.00;;;;;;5016795;28;20347;-75
2023/05/30 03:19:33;;;;;;;;;;;13.40;1.00;;;;;;5015510;28;19909;-76
2023/05/30 03:22:15;;;;;;;;;;;13.30;1.00;;;;;;5004016;28;19905;-84
2023/05/30 03:25:09;;;;;;;;;;;13.30;1.00;;;;;;5013008;28;19909;-84
2023/05/30 03:30:45;;;;;;;;;;;13.30;1.00;;;;;;5007768;28;20324;-83
2023/05/30 03:33:45;;;;;;;;;;;13.20;1.00;;;;;;5015067;28;20043;-83
2023/05/30 03:36:10;;;;;;;;;;;13.20;1.00;;;;;;4997136;28;19933;-76
2023/05/30 03:38:37;;;;;;;;;;;13.20;1.00;;;;;;5009219;28;19909;-75
2023/05/30 03:41:03;;;;;;;;;;;13.20;1.00;;;;;;5010111;28;19917;-75
2023/05/30 03:43:33;;;;;;;;;;;13.20;1.00;;;;;;5015668;28;19917;-75
2023/05/30 03:45:58;;;;;;;;;;;13.10;1.00;;;;;;4995064;28;19944;-75
2023/05/30 03:48:24;;;;;;;;;;;13.20;1.00;;;;;;5015042;28;19972;-75
2023/05/30 03:54:21;;;;;;;;;;;13.10;1.00;;;;;;5015737;28;19964;-84
2023/05/30 03:56:46;;;;;;;;;;;13.20;1.00;;;;;;5015433;28;19909;-84
2023/05/30 03:59:27;;;;;;;;;;;13.20;1.00;;;;;;5016000;28;19933;-84
2023/05/30 04:02:03;;;;;;;;;;;13.20;1.00;;;;;;5007687;28;20281;-84
2023/05/30 04:04:52;;;;;;;;;;;13.20;1.00;;;;;;5015664;28;20413;-84
2023/05/30 04:13:24;;;;;;;;;;;13.30;1.00;;;;;;5013246;28;19912;-86
2023/05/30 04:18:52;;;;;;;;;;;13.30;1.00;;;;;;5007656;28;19959;-86
2023/05/30 04:24:21;;;;;;;;;;;13.30;1.00;;;;;;5008862;28;19959;-86
2023/05/30 04:32:52;;;;;;;;;;;13.40;1.00;;;;;;5013544;28;20300;-86
2023/05/30 04:53:37;;;;;;;;;;;13.70;1.00;;;;;;5014532;28;19952;-85
2023/05/30 04:59:39;;;;;;;;;;;13.80;1.00;;;;;;5006502;28;20028;-86
2023/05/30 05:05:08;;;;;;;;;;;13.90;1.00;;;;;;5014981;28;19928;-86
2023/05/30 05:10:51;;;;;;;;;;;14.00;1.00;;;;;;5003105;28;19944;-85
2023/05/30 05:13:21;;;;;;;;;;;14.00;1.00;;;;;;4997343;28;19905;-85
2023/05/30 05:19:15;;;;;;;;;;;14.10;1.00;;;;;;5009708;28;19933;-85
2023/05/30 05:24:44;;;;;;;;;;;14.20;1.00;;;;;;5014313;28;19959;-86
2023/05/30 05:30:41;;;;;;;;;;;14.20;1.00;;;;;;5014298;28;20404;-87
2023/05/30 05:36:10;;;;;;;;;;;14.10;1.00;;;;;;5016138;28;19921;-87
2023/05/30 05:38:39;;;;;;;;;;;14.20;1.00;;;;;;4992510;28;19909;-84
2023/05/30 05:41:33;;;;;;;;;;;14.10;1.00;;;;;;4997184;28;19976;-85
2023/05/30 05:44:15;;;;;;;;;;;14.20;1.00;;;;;;4990030;28;19910;-85
2023/05/30 05:46:51;;;;;;;;;;;14.20;1.00;;;;;;4999500;28;19921;-84
2023/05/30 05:49:17;;;;;;;;;;;14.30;1.00;;;;;;5014406;28;19917;-84
2023/05/30 05:51:45;;;;;;;;;;;14.30;1.00;;;;;;4996887;28;19956;-84
2023/05/30 05:54:21;;;;;;;;;;;14.40;1.00;;;;;;5009746;28;19917;-84
2023/05/30 05:56:47;;;;;;;;;;;14.40;1.00;;;;;;4996396;28;19909;-84
2023/05/30 05:59:15;;;;;;;;;;;14.50;1.00;;;;;;4998711;28;19909;-83
2023/05/30 06:01:45;;;;;;;;;;;14.60;1.00;;;;;;5015390;28;20001;-83
2023/05/30 06:04:33;;;;;;;;;;;14.60;1.00;;;;;;4999475;28;19909;-83
2023/05/30 06:07:15;;;;;;;;;;;14.70;1.00;;;;;;5017455;28;19917;-83
2023/05/30 06:12:45;;;;;;;;;;;14.90;1.00;;;;;;5016523;28;19913;-83
2023/05/30 06:15:15;;;;;;;;;;;15.10;1.00;;;;;;4998959;28;19917;-83
2023/05/30 06:18:09;;;;;;;;;;;15.20;1.00;;;;;;4999414;28;19914;-83
2023/05/30 06:20:57;;;;;;;;;;;15.30;1.00;;;;;;5016738;28;19909;-83
2023/05/30 06:26:26;;;;;;;;;;;15.50;1.00;;;;;;5009531;28;19936;-88
2023/05/30 06:29:10;;;;;;;;;;;15.50;1.00;;;;;;4998522;28;19996;-88
2023/05/30 06:34:57;;;;;;;;;;;15.60;1.00;;;;;;5014563;28;19944;-88
2023/05/30 06:40:51;;;;;;;;;;;16.00;1.00;;;;;;5011329;28;19909;-90
2023/05/30 06:43:16;;;;;;;;;;;16.10;1.00;;;;;;5015140;28;20349;-90
2023/05/30 06:48:46;;;;;;;;;;;16.50;1.00;;;;;;5004778;28;19967;-89
2023/05/30 06:54:45;;;;;;;;;;;16.70;1.00;;;;;;5012191;28;19979;-89
2023/05/30 07:00:15;;;;;;;;;;;17.00;1.00;;;;;;5012879;28;20381;-90
2023/05/30 07:02:41;;;;;;;;;;;17.10;1.00;;;;;;4993655;28;19917;-89
2023/05/30 07:08:27;;;;;;;;;;;17.50;1.00;;;;;;5001394;28;19959;-87
2023/05/30 07:10:57;;;;;;;;;;;17.70;1.00;;;;;;4998135;28;19955;-82
2023/05/30 07:13:22;;;;;;;;;;;17.80;1.00;;;;;;5009266;28;20246;-82
2023/05/30 07:15:48;;;;;;;;;;;17.80;1.00;;;;;;5011582;28;19935;-82
2023/05/30 07:18:14;;;;;;;;;;;17.90;1.00;;;;;;4997672;28;19909;-81
2023/05/30 07:20:45;;;;;;;;;;;18.00;1.00;;;;;;5015516;28;20214;-81
2023/05/30 07:23:11;;;;;;;;;;;18.00;1.00;;;;;;4997699;28;20008;-81
2023/05/30 07:25:57;;;;;;;;;;;18.00;1.00;;;;;;5016211;28;20336;-88
2023/05/30 07:31:26;;;;;;;;;;;18.00;1.00;;;;;;4998847;28;19913;-89
2023/05/30 07:34:21;;;;;;;;;;;18.10;1.00;;;;;;4998724;28;19999;-88
2023/05/30 07:36:51;;;;;;;;;;;18.30;1.00;;;;;;5010453;28;19909;-90
2023/05/30 07:39:27;;;;;;;;;;;18.50;1.00;;;;;;5017043;28;20415;-89
2023/05/30 07:42:09;;;;;;;;;;;18.60;1.00;;;;;;4998895;28;19951;-88
2023/05/30 07:44:45;;;;;;;;;;;18.70;1.00;;;;;;4998380;28;19932;-88
2023/05/30 07:47:11;;;;;;;;;;;18.90;1.00;;;;;;4995743;28;19917;-88
2023/05/30 07:52:57;;;;;;;;;;;19.30;1.00;;;;;;5016011;28;19924;-88
2023/05/30 07:55:33;;;;;;;;;;;19.50;1.00;;;;;;4996731;28;19951;-88
2023/05/30 07:58:15;;;;;;;;;;;19.60;1.00;;;;;;4993914;28;19917;-89
2023/05/30 08:00:41;;;;;;;;;;;19.60;1.00;;;;;;4995364;28;19910;-88
2023/05/30 08:03:33;;;;;;;;;;;19.50;1.00;;;;;;5009615;28;19911;-88
2023/05/30 08:09:27;;;;;;;;;;;19.60;1.00;;;;;;5015203;28;19931;-89
2023/05/30 08:24:05;;;;;;;;;;;19.70;1.00;;;;;;5007630;28;19919;-88
2023/05/30 08:26:31;;;;;;;;;;;19.80;1.00;;;;;;4986217;28;20011;-88
2023/05/30 08:28:57;;;;;;;;;;;19.90;1.00;;;;;;4991683;28;19912;-88
2023/05/30 08:34:34;;;;;;;;;;;20.00;1.00;;;;;;5014999;28;19916;-88
2023/05/30 08:40:03;;;;;;;;;;;20.10;1.00;;;;;;5015029;28;19933;-87
2023/05/30 08:42:33;;;;;;;;;;;20.20;1.00;;;;;;4998249;28;20357;-88
2023/05/30 08:45:09;;;;;;;;;;;20.20;1.00;;;;;;4999545;28;19909;-88
2023/05/30 08:50:38;;;;;;;;;;;20.20;1.00;;;;;;5007607;28;19956;-88
2023/05/30 08:56:39;;;;;;;;;;;20.30;1.00;;;;;;5014627;28;19911;-83
2023/05/30 08:59:09;;;;;;;;;;;20.40;1.00;;;;;;4996940;28;19905;-82
2023/05/30 09:01:39;;;;;;;;;;;20.60;1.00;;;;;;4995910;28;19910;-83
2023/05/30 09:04:27;;;;;;;;;;;20.70;1.00;;;;;;5014587;28;20281;-83
2023/05/30 09:06:57;;;;;;;;;;;20.80;1.00;;;;;;4989471;28;19909;-83
2023/05/30 09:09:33;;;;;;;;;;;20.90;1.00;;;;;;5003109;28;19914;-88
2023/05/30 09:12:09;;;;;;;;;;;21.00;1.00;;;;;;4995285;28;19913;-83
2023/05/30 09:14:39;;;;;;;;;;;21.10;1.00;;;;;;5013490;28;19988;-83
2023/05/30 09:17:27;;;;;;;;;;;21.20;1.00;;;;;;5014056;28;20379;-84
2023/05/30 09:19:57;;;;;;;;;;;21.20;1.00;;;;;;4998904;28;19906;-83
2023/05/30 09:22:33;;;;;;;;;;;21.30;1.00;;;;;;4996636;28;19956;-83
2023/05/30 09:28:22;;;;;;;;;;;21.40;1.00;;;;;;5007591;28;19919;-89
2023/05/30 09:30:55;;;;;;;;;;;21.60;1.00;;;;;;5009273;28;20016;-89
2023/05/30 09:33:57;;;;;;;;;;;21.70;1.00;;;;;;4997605;28;19924;-88
2023/05/30 09:36:45;;;;;;;;;;;21.70;1.00;;;;;;4996220;28;19935;-88
2023/05/30 09:42:37;;;;;;;;;;;22.10;1.00;;;;;;5009742;28;19912;-83
2023/05/30 09:45:05;;;;;;;;;;;22.30;1.00;;;;;;4979093;28;20390;-82
2023/05/30 09:47:44;;;;;;;;;;;22.40;1.00;;;;;;5007537;28;19961;-83
2023/05/30 09:50:24;;;;;;;;;;;22.50;1.00;;;;;;5001285;28;19941;-83
2023/05/30 09:52:56;;;;;;;;;;;22.40;1.00;;;;;;5008167;28;19917;-83
2023/05/30 09:55:23;;;;;;;;;;;22.50;1.00;;;;;;5009004;28;19913;-88
2023/05/30 10:01:17;;;;;;;;;;;22.60;1.00;;;;;;5009621;28;19912;-89
2023/05/30 10:03:45;;;;;;;;;;;22.70;1.00;;;;;;5014341;28;19925;-88
2023/05/30 10:06:27;;;;;;;;;;;22.70;1.00;;;;;;5013887;28;20051;-88
2023/05/30 10:12:03;;;;;;;;;;;22.90;1.00;;;;;;5011400;28;19965;-89
2023/05/30 10:14:28;;;;;;;;;;;23.00;1.00;;;;;;4996499;28;20350;-89
2023/05/30 10:17:02;;;;;;;;;;;23.10;1.00;;;;;;5013711;28;19940;-88
2023/05/30 10:25:16;;;;;;;;;;;23.20;1.00;;;;;;5010337;28;19920;-88
2023/05/30 10:31:09;;;;;;;;;;;23.30;1.00;;;;;;5016954;28;19977;-88
2023/05/30 10:40:06;;;;;;;;;;;23.60;1.00;;;;;;5016354;28;19917;-89
2023/05/30 10:42:38;;;;;;;;;;;23.60;1.00;;;;;;5000138;28;19935;-89
2023/05/30 10:45:27;;;;;;;;;;;23.70;1.00;;;;;;5017297;28;19909;-89
2023/05/30 10:48:18;;;;;;;;;;;23.70;1.00;;;;;;5009146;28;19913;-88
2023/05/30 10:54:18;;;;;;;;;;;23.90;1.00;;;;;;5013795;28;19955;-89
2023/05/30 10:56:46;;;;;;;;;;;24.10;1.00;;;;;;5017128;28;19956;-84
2023/05/30 10:59:27;;;;;;;;;;;24.20;1.00;;;;;;4996503;28;19910;-84
2023/05/30 11:02:21;;;;;;;;;;;24.20;1.00;;;;;;5016583;28;19925;-84
2023/05/30 11:04:50;;;;;;;;;;;24.20;1.00;;;;;;5011021;28;20036;-83
2023/05/30 11:07:27;;;;;;;;;;;24.20;1.00;;;;;;4989238;28;19967;-84
2023/05/30 11:10:14;;;;;;;;;;;24.20;1.00;;;;;;5009417;28;19906;-84
2023/05/30 11:13:03;;;;;;;;;;;24.20;1.00;;;;;;5011726;28;20342;-83
2023/05/30 11:15:48;;;;;;;;;;;24.30;1.00;;;;;;5004667;28;20007;-86
2023/05/30 11:18:38;;;;;;;;;;;24.50;1.00;;;;;;4996894;28;19916;-85
2023/05/30 11:21:27;;;;;;;;;;;24.60;1.00;;;;;;4998223;28;19905;-84
2023/05/30 11:24:04;;;;;;;;;;;24.50;1.00;;;;;;4995448;28;19916;-84
2023/05/30 11:29:57;;;;;;;;;;;24.50;1.00;;;;;;5003962;28;19917;-83
2023/05/30 11:32:28;;;;;;;;;;;24.50;1.00;;;;;;5012204;28;20284;-85
2023/05/30 11:35:01;;;;;;;;;;;24.60;1.00;;;;;;4997676;28;20262;-85
2023/05/30 11:37:35;;;;;;;;;;;24.60;1.00;;;;;;4986984;28;19910;-86
2023/05/30 11:40:12;;;;;;;;;;;24.70;1.00;;;;;;5003597;28;19996;-87
2023/05/30 11:42:57;;;;;;;;;;;24.80;1.00;;;;;;5010793;28;19909;-86
2023/05/30 11:45:30;;;;;;;;;;;24.60;1.00;;;;;;4998802;28;20338;-87
2023/05/30 11:48:12;;;;;;;;;;;24.60;1.00;;;;;;4997480;28;19937;-84
2023/05/30 11:50:46;;;;;;;;;;;24.70;1.00;;;;;;4994807;28;19909;-84
2023/05/30 11:53:16;;;;;;;;;;;24.80;1.00;;;;;;5007709;28;19959;-84
2023/05/30 11:56:03;;;;;;;;;;;24.90;1.00;;;;;;5014394;28;19909;-83
2023/05/30 11:58:49;;;;;;;;;;;25.00;1.00;;;;;;5014275;28;19996;-82
2023/05/30 12:01:27;;;;;;;;;;;25.20;1.00;;;;;;5013899;28;20384;-83
2023/05/30 12:03:57;;;;;;;;;;;25.20;1.00;;;;;;5008718;28;19909;-84
2023/05/30 12:06:34;;;;;;;;;;;25.30;1.00;;;;;;4989081;28;19957;-84
2023/05/30 12:09:06;;;;;;;;;;;25.20;1.00;;;;;;4998210;28;19910;-88
2023/05/30 12:11:50;;;;;;;;;;;25.10;1.00;;;;;;4989788;28;19905;-84
2023/05/30 12:14:16;;;;;;;;;;;25.30;1.00;;;;;;5007384;28;19913;-84
2023/05/30 12:16:52;;;;;;;;;;;25.40;1.00;;;;;;4983128;28;20004;-89
2023/05/30 12:19:28;;;;;;;;;;;25.50;1.00;;;;;;4996630;28;19955;-85
2023/05/30 12:22:04;;;;;;;;;;;25.50;1.00;;;;;;4992644;28;19909;-84
2023/05/30 12:24:35;;;;;;;;;;;25.50;1.00;;;;;;4995565;28;19912;-85
2023/05/30 12:27:02;;;;;;;;;;;25.60;1.00;;;;;;5011267;28;19917;-85
2023/05/30 12:29:51;;;;;;;;;;;25.50;1.00;;;;;;5012398;28;19909;-82
2023/05/30 12:32:25;;;;;;;;;;;25.50;1.00;;;;;;5014245;28;19917;-82
2023/05/30 12:34:53;;;;;;;;;;;25.50;1.00;;;;;;5009325;28;19909;-83
2023/05/30 12:37:27;;;;;;;;;;;25.50;1.00;;;;;;5006446;28;19909;-84
2023/05/30 12:39:58;;;;;;;;;;;25.50;1.00;;;;;;4995908;28;20044;-84
2023/05/30 12:42:28;;;;;;;;;;;25.50;1.00;;;;;;4994147;28;20360;-83
2023/05/30 12:44:58;;;;;;;;;;;25.60;1.00;;;;;;5006617;28;19952;-83
2023/05/30 12:47:24;;;;;;;;;;;25.80;1.00;;;;;;4995615;28;20472;-81
2023/05/30 12:50:27;;;;;;;;;;;25.90;1.00;;;;;;5014485;28;19905;-85
2023/05/30 12:52:53;;;;;;;;;;;26.00;1.00;;;;;;5014565;28;19909;-86
2023/05/30 12:55:27;;;;;;;;;;;26.00;1.00;;;;;;4997222;28;19905;-84
2023/05/30 12:58:03;;;;;;;;;;;26.10;1.00;;;;;;4996973;28;19915;-85
2023/05/30 13:00:45;;;;;;;;;;;26.10;1.00;;;;;;4997154;28;19913;-86
2023/05/30 13:03:27;;;;;;;;;;;26.10;1.00;;;;;;4991077;28;19941;-87
2023/05/30 13:05:57;;;;;;;;;;;26.10;1.00;;;;;;4989321;28;19913;-82
2023/05/30 13:08:27;;;;;;;;;;;26.10;1.00;;;;;;5012925;28;19992;-85
2023/05/30 13:10:53;;;;;;;;;;;26.10;1.00;;;;;;4994773;28;19988;-76
2023/05/30 13:13:21;;;;;;;;;;;26.10;1.00;;;;;;5014054;28;19928;-82
2023/05/30 13:15:47;;;;;;;;;;;26.10;1.00;;;;;;5013424;28;19972;-82
2023/05/30 13:18:15;;;;;;;;;;;26.20;1.00;;;;;;5013788;28;19913;-85
2023/05/30 13:21:15;;;;;;;;;;;26.30;1.00;;;;;;4995600;28;19916;-90
2023/05/30 13:24:09;;;;;;;;;;;26.50;1.00;;;;;;5004184;28;19960;-80
2023/05/30 13:26:57;;;;;;;;;;;26.40;1.00;;;;;;5004590;28;19909;-79
2023/05/30 13:29:34;;;;;;;;;;;26.50;1.00;;;;;;5001429;28;19906;-79
2023/05/30 13:35:21;;;;;;;;;;;26.50;1.00;;;;;;5013904;28;19940;-80
2023/05/30 13:38:03;;;;;;;;;;;26.50;1.00;;;;;;5005183;28;19910;-79
2023/05/30 13:43:32;;;;;;;;;;;26.50;1.00;;;;;;5012929;28;19917;-74
2023/05/30 13:45:58;;;;;;;;;;;26.50;1.00;;;;;;5013511;28;19913;-75
2023/05/30 13:48:24;;;;;;;;;;;26.50;1.00;;;;;;5006894;28;19905;-74
2023/05/30 13:50:50;;;;;;;;;;;26.50;1.00;;;;;;5010721;28;19925;-74
2023/05/30 13:53:17;;;;;;;;;;;26.50;1.00;;;;;;5004338;28;19963;-74
2023/05/30 13:55:43;;;;;;;;;;;26.50;1.00;;;;;;5013871;28;19917;-75
2023/05/30 13:58:15;;;;;;;;;;;26.60;1.00;;;;;;5018066;28;19909;-79
2023/05/30 14:00:51;;;;;;;;;;;26.50;1.00;;;;;;5017388;28;19917;-79
2023/05/30 14:03:39;;;;;;;;;;;26.60;1.00;;;;;;5009578;28;20000;-79
2023/05/30 14:06:39;;;;;;;;;;;26.60;1.00;;;;;;5014373;28;19920;-79
2023/05/30 14:09:04;;;;;;;;;;;26.50;1.00;;;;;;5013132;28;19910;-79
2023/05/30 14:11:39;;;;;;;;;;;26.40;1.00;;;;;;5016897;28;19916;-79
2023/05/30 14:14:05;;;;;;;;;;;26.50;1.00;;;;;;5017766;28;20040;-79
2023/05/30 14:16:31;;;;;;;;;;;26.50;1.00;;;;;;5017498;28;19987;-79
2023/05/30 14:19:28;;;;;;;;;;;26.50;1.00;;;;;;5017440;28;19905;-79
2023/05/30 14:22:15;;;;;;;;;;;26.60;1.00;;;;;;5016653;28;19909;-79
2023/05/30 14:27:45;;;;;;;;;;;26.70;1.00;;;;;;5017239;28;19917;-76
2023/05/30 14:30:17;;;;;;;;;;;26.60;1.00;;;;;;5017069;28;19910;-79
2023/05/30 14:32:51;;;;;;;;;;;26.70;1.00;;;;;;5016959;28;19936;-79
2023/05/30 14:35:28;;;;;;;;;;;26.90;1.00;;;;;;5016484;28;19906;-79
2023/05/30 14:37:57;;;;;;;;;;;27.00;1.00;;;;;;4993431;28;19909;-79
2023/05/30 14:40:23;;;;;;;;;;;27.00;1.00;;;;;;5015866;28;19905;-79
2023/05/30 14:42:48;;;;;;;;;;;27.00;1.00;;;;;;5016797;28;20012;-75
2023/05/30 14:45:15;;;;;;;;;;;27.00;1.00;;;;;;5011519;28;19912;-79
2023/05/30 14:47:51;;;;;;;;;;;27.10;1.00;;;;;;5016691;28;19905;-79
2023/05/30 14:50:27;;;;;;;;;;;27.20;1.00;;;;;;5016459;28;20316;-79
2023/05/30 14:56:04;;;;;;;;;;;27.30;1.00;;;;;;5009761;28;19956;-79
2023/05/30 14:58:30;;;;;;;;;;;27.30;1.00;;;;;;5016972;28;19905;-79
2023/05/30 15:00:57;;;;;;;;;;;27.30;1.00;;;;;;5016062;28;19913;-79
2023/05/30 15:03:40;;;;;;;;;;;27.40;1.00;;;;;;5016409;28;19905;-79
2023/05/30 15:06:21;;;;;;;;;;;27.60;1.00;;;;;;5016496;28;19909;-79
2023/05/30 15:08:47;;;;;;;;;;;28.30;1.00;;;;;;5014982;28;20012;-79
2023/05/30 15:11:15;;;;;;;;;;;29.70;1.00;;;;;;5014703;28;19948;-79
2023/05/30 15:13:41;;;;;;;;;;;31.20;1.00;;;;;;5010162;28;19910;-75
2023/05/30 15:16:06;;;;;;;;;;;32.70;1.00;;;;;;5015483;28;19914;-75
2023/05/30 15:18:32;;;;;;;;;;;34.10;1.00;;;;;;5015690;28;19906;-75
2023/05/30 15:20:58;;;;;;;;;;;35.30;1.00;;;;;;5015226;28;19909;-75
2023/05/30 15:23:23;;;;;;;;;;;36.80;1.00;;;;;;5014995;28;19913;-76
2023/05/30 15:25:49;;;;;;;4.50;1.90;;;37.80;1.00;;;;;;5014135;28;20422;-75
2023/05/30 15:28:39;;;;;;;6.20;2.03;;;38.30;1.00;;;;;;5015449;28;20195;-79
2023/05/30 15:31:19;;;;;;;4.50;1.90;;;39.40;1.00;;;;;;5015577;28;20240;-80
2023/05/30 15:33:45;;;;;;;520.67;294.20;;;40.50;1.00;;;;;;5000194;28;20511;-80
2023/05/30 15:36:11;;;;;;;509.37;362.20;;;41.10;1.00;;;;;;5014713;28;20420;-80
2023/05/30 15:38:37;;;;;;;265.97;148.27;;;41.70;1.00;;;;;;5015460;28;20466;-80
2023/05/30 15:41:10;;;;;;;8.87;2.20;;;41.70;1.00;;;;;;5015473;28;20204;-80
2023/05/30 15:43:46;;;;;;;3.73;1.90;;;41.80;1.00;;;;;;5002658;28;20671;-80
2023/05/30 15:46:39;;;;;;;7.53;2.30;;;42.50;1.00;;;;;;5010105;28;20463;-80
2023/05/30 15:49:05;;;;;;;6.00;2.20;;;43.00;1.00;;;;;;5015238;28;20408;-80
2023/05/30 15:51:31;;;;;;;39.30;8.60;;;43.30;1.00;;;;;;5015211;28;20403;-80
2023/05/30 15:54:10;;;;;;;5.67;2.50;;;43.20;1.00;;;;;;5015131;28;20165;-80
2023/05/30 15:56:46;;;;;;;4.47;1.93;;;42.90;1.00;;;;;;5003491;28;20192;-80
2023/05/30 15:59:21;;;;;;;5.67;2.33;;;42.80;1.00;;;;;;5004100;28;20428;-80
2023/05/30 16:01:59;;;;;;;5.33;1.93;;;42.20;1.00;;;;;;5014687;28;20922;-80
2023/05/30 16:04:52;;;;;;;6.23;2.30;;;42.70;1.00;;;;;;5015072;28;20416;-80
2023/05/30 16:07:18;;;;;;;4.60;1.93;;;43.50;1.00;;;;;;5009855;28;20447;-80
2023/05/30 16:09:44;;;;;;;5.67;1.73;;;43.70;1.00;;;;;;5014912;28;20969;-81
2023/05/30 16:12:22;;;;;;;6.00;2.00;;;43.10;1.00;;;;;;5014820;28;20645;-80
2023/05/30 16:15:16;;;;;;;4.00;1.80;;;42.80;1.00;;;;;;5012596;28;20918;-80
2023/05/30 16:17:52;;;;;;;5.27;1.97;;;42.20;1.00;;;;;;5013497;28;20463;-80
2023/05/30 16:20:17;;;;;;;5.83;2.33;;;42.40;1.00;;;;;;5014382;28;20412;-80
2023/05/30 16:23:04;;;;;;;6.93;2.00;;;43.00;1.00;;;;;;5007295;28;20411;-80
2023/05/30 16:25:46;;;;;;;5.53;1.97;;;43.10;1.00;;;;;;5008563;28;20177;-81
2023/05/30 16:28:12;;;;;;;4.23;1.97;;;42.70;1.00;;;;;;5011871;28;20474;-80
2023/05/30 16:30:37;;;;;;;2.87;2.10;;;42.60;1.00;;;;;;4999480;28;20951;-75
2023/05/30 16:33:03;;;;;;;9.63;2.00;;;43.30;1.00;;;;;;5017725;28;20420;-75
2023/05/30 16:35:29;;;;;;;5.50;1.90;;;43.70;1.00;;;;;;5011992;28;20259;-75
2023/05/30 16:37:55;;;;;;;4.63;1.60;;;44.00;1.00;;;;;;4999816;28;20185;-75
2023/05/30 16:40:20;;;;;;;6.70;1.93;;;44.30;1.00;;;;;;5011691;28;20181;-76
2023/05/30 16:42:46;;;;;;;7.33;1.90;;;44.80;1.00;;;;;;5013971;28;20204;-76
2023/05/30 16:45:11;;;;;;;5.67;2.10;;;45.00;1.00;;;;;;4995578;28;20268;-76
2023/05/30 16:47:37;;;;;;;9.13;2.10;;;45.10;1.00;;;;;;5013694;28;20189;-75
2023/05/30 16:50:03;;;;;;;13.93;2.20;;;44.10;1.00;;;;;;4995861;28;20184;-76
2023/05/30 16:52:29;;;;;;;4.67;2.33;;;44.60;1.00;;;;;;5013801;28;20304;-76
2023/05/30 16:54:55;;;;;;;2.93;1.80;;;43.80;1.00;;;;;;5012660;28;20515;-75
2023/05/30 16:57:22;;;;;;;4.17;2.10;;;43.70;1.00;;;;;;5013734;28;20185;-76
2023/05/30 16:59:52;;;;;;;4.93;2.10;;;43.60;1.00;;;;;;5014035;28;20201;-80
2023/05/30 17:02:34;;;;;;;4.30;2.07;;;43.60;1.00;;;;;;5010145;28;20411;-80
2023/05/30 17:05:04;;;;;;;7.30;2.23;;;43.70;1.00;;;;;;5002216;28;20949;-80
2023/05/30 17:07:34;;;;;;;6.60;2.10;;;43.60;1.00;;;;;;5013973;28;20455;-80
2023/05/30 17:09:59;;;;;;;5.70;1.90;;;43.10;1.00;;;;;;5013953;28;20408;-80
2023/05/30 17:12:57;;;;;;;5.20;1.93;;;42.40;1.00;;;;;;5013625;28;20491;-80
2023/05/30 17:15:23;;;;;;;6.43;1.80;;;43.00;1.00;;;;;;5013939;28;20189;-80
2023/05/30 17:17:52;;;;;;;9.70;2.50;;;43.70;1.00;;;;;;5013206;28;20931;-80
2023/05/30 17:20:22;;;;;;;10.20;1.83;;;44.20;1.00;;;;;;5013785;28;20411;-80
2023/05/30 17:23:04;;;;;;;5.33;2.47;;;44.00;1.00;;;;;;5013478;28;20412;-80
2023/05/30 17:25:40;;;;;;;8.07;2.50;;;43.70;1.00;;;;;;5013583;28;20443;-80
2023/05/30 17:28:16;;;;;;;3.17;1.80;;;43.90;1.00;;;;;;5013653;28;20948;-80
2023/05/30 17:30:41;;;;;;;11.40;2.10;;;44.30;1.00;;;;;;5012950;28;20518;-76
2023/05/30 17:33:07;;;;;;;6.50;1.90;;;44.20;1.00;;;;;;5013285;28;20495;-76
2023/05/30 17:35:33;;;;;;;3.20;2.00;;;43.60;1.00;;;;;;4993862;28;20715;-76
2023/05/30 17:38:00;;;;;;;5.73;2.30;;;43.10;1.00;;;;;;4997543;28;20695;-75
2023/05/30 17:40:27;;;;;;;5.47;2.33;;;41.60;1.00;;;;;;5006482;28;20452;-75
2023/05/30 17:42:53;;;;;;;7.97;2.87;;;39.30;1.00;;;;;;5013194;28;20423;-75
2023/05/30 17:45:18;;;;;;;7.53;2.73;;;37.50;1.00;;;;;;5007587;28;20432;-75
2023/05/30 17:47:44;;;;;;;5.00;2.50;;;35.80;1.00;;;;;;5012195;28;20205;-75
2023/05/30 17:50:10;;;;;;;5.03;2.80;;;34.10;1.00;;;;;;5000038;28;20173;-74